Sunflower Hakata — JL6711 — position and weather

sailwx.info

Track history (hours):
 
Tides and Currents Weather Stations Pressure Air Temp Water Temp Dewpoint Dewpoint Depression Visibility Wind Speed Wind Dir Waves Ship Positions

Sunflower Hakata

Last reported at 2015-Jan-28 04:33 UTC. Time now 2015-Jan-28 14:16 UTC.
Position N 34°02' E 134°59'.

Length 167 m; draft 6.5 m.

Type: Cargo ship. MMSI: 431501764.

Date/timePositionNaut miles runAvg speedWind from/ knotsBaromVisibWave heightAir tempDewpointWater temp
2015-Jan-28 04:33N 34°02' E 134°59'2222.4
2015-Jan-28 03:33N 34°25' E 135°01'1212.1
2015-Jan-28 02:33N 34°34' E 134°52'20313.5
2015-Jan-27 11:33N 34°02' E 130°49'2221.5
2015-Jan-27 10:32N 33°57' E 130°24'1918.7
2015-Jan-27 09:33N 33°39' E 130°19'5 4.5
2015-Jan-27 08:28N 33°38' E 130°24'0 0.0
2015-Jan-27 07:31N 33°38' E 130°24'0 0.0
2015-Jan-27 06:28N 33°38' E 130°24'0 0.0
2015-Jan-27 05:25N 33°38' E 130°24'0 0.0
2015-Jan-27 04:31N 33°38' E 130°24'0 0.0
2015-Jan-27 02:28N 33°38' E 130°24'0 0.0
2015-Jan-27 01:28N 33°38' E 130°24'0 0.0
2015-Jan-27 00:31N 33°38' E 130°24'0 0.0
2015-Jan-26 23:28N 33°38' E 130°24'0 0.1
2015-Jan-26 22:28N 33°37' E 130°24'0 0.0
2015-Jan-26 21:31N 33°37' E 130°24'0 0.0
2015-Jan-26 20:28N 33°37' E 130°24'0 0.0
2015-Jan-26 19:28N 33°37' E 130°24'0 0.0
2015-Jan-26 18:28N 33°37' E 130°24'0 0.0
2015-Jan-26 17:31N 33°37' E 130°24'0 0.0
2015-Jan-26 16:28N 33°37' E 130°24'0 0.0
2015-Jan-26 15:31N 33°37' E 130°24'446 9.1
2015-Jan-24 14:33N 34°50' E 139°16'2322.7
2015-Jan-24 13:33N 35°04' E 139°38'1515.0
2015-Jan-24 12:33N 35°18' E 139°44'1716.8
2015-Jan-24 11:33N 35°34' E 139°51'4 2.9
2015-Jan-24 10:08N 35°37' E 139°48'0 0.0
2015-Jan-24 09:32N 35°37' E 139°48'0 0.0
2015-Jan-24 08:26N 35°37' E 139°48'0 0.0
2015-Jan-24 07:32N 35°37' E 139°48'0 0.0
2015-Jan-24 06:26N 35°37' E 139°48'0 0.0
2015-Jan-24 05:20N 35°37' E 139°48'0 0.0
2015-Jan-24 04:32N 35°37' E 139°48'0 0.0
2015-Jan-24 03:26N 35°37' E 139°48'0 0.0
2015-Jan-24 02:32N 35°37' E 139°48'0 0.0
2015-Jan-24 01:32N 35°37' E 139°48'0 0.0
2015-Jan-24 00:32N 35°37' E 139°48'0 0.0
2015-Jan-23 23:08N 35°37' E 139°48'0 0.0
2015-Jan-23 22:26N 35°37' E 139°48'0 0.0
2015-Jan-23 21:20N 35°37' E 139°48'0 0.0
2015-Jan-23 20:32N 35°37' E 139°48'8 7.9
2015-Jan-23 19:33N 35°30' E 139°52'1414.2
2015-Jan-23 18:33N 35°17' E 139°45'1615.9
2015-Jan-23 17:33N 35°02' E 139°39'2320.9
2015-Jan-23 16:28N 34°48' E 139°18'21818.3
2015-Jan-23 04:34N 34°04' E 134°58'2322.8
2015-Jan-23 03:33N 34°27' E 135°01'1111.3
2015-Jan-23 02:33N 34°33' E 134°49'20713.7
2015-Jan-22 11:25N 34°02' E 130°41'1517.1
2015-Jan-22 10:31N 33°56' E 130°24'1616.9
2015-Jan-22 09:33N 33°42' E 130°16'8 8.1
2015-Jan-22 08:32N 33°38' E 130°24'0 0.0
2015-Jan-22 07:33N 33°38' E 130°24'0 0.0
2015-Jan-22 06:33N 33°38' E 130°24'0 0.0
2015-Jan-22 05:33N 33°38' E 130°24'0 0.0
2015-Jan-22 04:33N 33°38' E 130°24'0 0.0
2015-Jan-22 03:33N 33°38' E 130°24'0 0.0
2015-Jan-22 02:27N 33°38' E 130°24'0 0.0
2015-Jan-22 01:33N 33°38' E 130°24'0 0.0
2015-Jan-22 00:33N 33°38' E 130°24'0 0.0
2015-Jan-21 23:33N 33°38' E 130°24'0 0.0
2015-Jan-21 22:45N 33°38' E 130°24'0 0.0
2015-Jan-21 22:33N 33°38' E 130°24'0 0.0
2015-Jan-21 21:33N 33°38' E 130°24'0 0.1
2015-Jan-21 20:32N 33°38' E 130°24'44515.1
2015-Jan-20 15:08N 34°49' E 139°16'1322.6
2015-Jan-20 14:32N 34°57' E 139°29'2121.0
2015-Jan-20 13:33N 35°12' E 139°46'1414.4
2015-Jan-20 12:33N 35°27' E 139°47'1010.2
2015-Jan-20 11:33N 35°37' E 139°48'0 0.0
2015-Jan-20 07:20N 35°37' E 139°48'0 0.0
2015-Jan-20 06:05N 35°37' E 139°48'0 0.0
2015-Jan-20 00:05N 35°37' E 139°48'0 0.1
2015-Jan-19 23:26N 35°37' E 139°48'0 0.0
2015-Jan-19 22:32N 35°37' E 139°48'0 0.0
2015-Jan-19 21:32N 35°37' E 139°48'0 0.0
2015-Jan-19 20:32N 35°37' E 139°48'0 0.0
2015-Jan-19 19:32N 35°37' E 139°48'0 0.0
2015-Jan-19 18:32N 35°37' E 139°48'0 0.0
2015-Jan-19 17:29N 35°37' E 139°48'0 0.0
2015-Jan-19 16:23N 35°37' E 139°48'0 0.0
2015-Jan-19 15:29N 35°37' E 139°48'0 0.0
2015-Jan-19 14:29N 35°37' E 139°48'0 0.0
2015-Jan-19 13:29N 35°37' E 139°48'0 0.0
2015-Jan-19 12:20N 35°37' E 139°48'0 0.0
2015-Jan-19 11:32N 35°37' E 139°48'0 0.0
2015-Jan-19 10:23N 35°37' E 139°48'0 0.0
2015-Jan-19 09:32N 35°37' E 139°48'0 0.0
2015-Jan-19 08:29N 35°37' E 139°48'0 0.0
2015-Jan-19 07:29N 35°37' E 139°48'0 0.0
2015-Jan-19 06:32N 35°37' E 139°48'0 0.0
2015-Jan-19 05:29N 35°37' E 139°48'0 0.0
2015-Jan-19 03:29N 35°37' E 139°48'0 0.0
2015-Jan-19 02:29N 35°37' E 139°48'0 0.0
2015-Jan-19 01:11N 35°37' E 139°48'0 0.0
2015-Jan-19 00:23N 35°37' E 139°48'0 0.0
2015-Jan-18 23:29N 35°37' E 139°48'0 0.0
2015-Jan-18 22:29N 35°37' E 139°48'0 0.0
2015-Jan-18 21:34N 35°37' E 139°48'0 0.1
2015-Jan-18 20:33N 35°37' E 139°48'9 8.7
2015-Jan-18 19:33N 35°29' E 139°52'1312.9
2015-Jan-18 18:33N 35°17' E 139°46'1615.6
2015-Jan-18 17:33N 35°02' E 139°41'2420.8
2015-Jan-18 16:25N 34°48' E 139°18'21918.5
2015-Jan-18 04:34N 33°58' E 134°59'  
Track history (hours):
 
Tides and Currents Weather Stations Pressure Air Temp Water Temp Dewpoint Dewpoint Depression Visibility Wind Speed Wind Dir Waves Ship Positions

Sunflower Hakata

Last reported at 2015-Jan-28 04:33 UTC. Time now 2015-Jan-28 14:16 UTC.
Position N 34°02' E 134°59'.

Length 167 m; draft 6.5 m.

Type: Cargo ship. MMSI: 431501764.

Date/timePositionNaut miles runAvg speedWind from/ knotsBaromVisibWave heightAir tempDewpointWater temp
2015-Jan-28 04:33N 34°02' E 134°59'2222.4
2015-Jan-28 03:33N 34°25' E 135°01'1212.1
2015-Jan-28 02:33N 34°34' E 134°52'20313.5
2015-Jan-27 11:33N 34°02' E 130°49'2221.5
2015-Jan-27 10:32N 33°57' E 130°24'1918.7
2015-Jan-27 09:33N 33°39' E 130°19'5 4.5
2015-Jan-27 08:28N 33°38' E 130°24'0 0.0
2015-Jan-27 07:31N 33°38' E 130°24'0 0.0
2015-Jan-27 06:28N 33°38' E 130°24'0 0.0
2015-Jan-27 05:25N 33°38' E 130°24'0 0.0
2015-Jan-27 04:31N 33°38' E 130°24'0 0.0
2015-Jan-27 02:28N 33°38' E 130°24'0 0.0
2015-Jan-27 01:28N 33°38' E 130°24'0 0.0
2015-Jan-27 00:31N 33°38' E 130°24'0 0.0
2015-Jan-26 23:28N 33°38' E 130°24'0 0.1
2015-Jan-26 22:28N 33°37' E 130°24'0 0.0
2015-Jan-26 21:31N 33°37' E 130°24'0 0.0
2015-Jan-26 20:28N 33°37' E 130°24'0 0.0
2015-Jan-26 19:28N 33°37' E 130°24'0 0.0
2015-Jan-26 18:28N 33°37' E 130°24'0 0.0
2015-Jan-26 17:31N 33°37' E 130°24'0 0.0
2015-Jan-26 16:28N 33°37' E 130°24'0 0.0
2015-Jan-26 15:31N 33°37' E 130°24'446 9.1
2015-Jan-24 14:33N 34°50' E 139°16'2322.7
2015-Jan-24 13:33N 35°04' E 139°38'1515.0
2015-Jan-24 12:33N 35°18' E 139°44'1716.8
2015-Jan-24 11:33N 35°34' E 139°51'4 2.9
2015-Jan-24 10:08N 35°37' E 139°48'0 0.0
2015-Jan-24 09:32N 35°37' E 139°48'0 0.0
2015-Jan-24 08:26N 35°37' E 139°48'0 0.0
2015-Jan-24 07:32N 35°37' E 139°48'0 0.0
2015-Jan-24 06:26N 35°37' E 139°48'0 0.0
2015-Jan-24 05:20N 35°37' E 139°48'0 0.0
2015-Jan-24 04:32N 35°37' E 139°48'0 0.0
2015-Jan-24 03:26N 35°37' E 139°48'0 0.0
2015-Jan-24 02:32N 35°37' E 139°48'0 0.0
2015-Jan-24 01:32N 35°37' E 139°48'0 0.0
2015-Jan-24 00:32N 35°37' E 139°48'0 0.0
2015-Jan-23 23:08N 35°37' E 139°48'0 0.0
2015-Jan-23 22:26N 35°37' E 139°48'0 0.0
2015-Jan-23 21:20N 35°37' E 139°48'0 0.0
2015-Jan-23 20:32N 35°37' E 139°48'8 7.9
2015-Jan-23 19:33N 35°30' E 139°52'1414.2
2015-Jan-23 18:33N 35°17' E 139°45'1615.9
2015-Jan-23 17:33N 35°02' E 139°39'2320.9
2015-Jan-23 16:28N 34°48' E 139°18'21818.3
2015-Jan-23 04:34N 34°04' E 134°58'2322.8
2015-Jan-23 03:33N 34°27' E 135°01'1111.3
2015-Jan-23 02:33N 34°33' E 134°49'20713.7
2015-Jan-22 11:25N 34°02' E 130°41'1517.1
2015-Jan-22 10:31N 33°56' E 130°24'1616.9
2015-Jan-22 09:33N 33°42' E 130°16'8 8.1
2015-Jan-22 08:32N 33°38' E 130°24'0 0.0
2015-Jan-22 07:33N 33°38' E 130°24'0 0.0
2015-Jan-22 06:33N 33°38' E 130°24'0 0.0
2015-Jan-22 05:33N 33°38' E 130°24'0 0.0
2015-Jan-22 04:33N 33°38' E 130°24'0 0.0
2015-Jan-22 03:33N 33°38' E 130°24'0 0.0
2015-Jan-22 02:27N 33°38' E 130°24'0 0.0
2015-Jan-22 01:33N 33°38' E 130°24'0 0.0
2015-Jan-22 00:33N 33°38' E 130°24'0 0.0
2015-Jan-21 23:33N 33°38' E 130°24'0 0.0
2015-Jan-21 22:45N 33°38' E 130°24'0 0.0
2015-Jan-21 22:33N 33°38' E 130°24'0 0.0
2015-Jan-21 21:33N 33°38' E 130°24'0 0.1
2015-Jan-21 20:32N 33°38' E 130°24'44515.1
2015-Jan-20 15:08N 34°49' E 139°16'1322.6
2015-Jan-20 14:32N 34°57' E 139°29'2121.0
2015-Jan-20 13:33N 35°12' E 139°46'1414.4
2015-Jan-20 12:33N 35°27' E 139°47'1010.2
2015-Jan-20 11:33N 35°37' E 139°48'0 0.0
2015-Jan-20 07:20N 35°37' E 139°48'0 0.0
2015-Jan-20 06:05N 35°37' E 139°48'0 0.0
2015-Jan-20 00:05N 35°37' E 139°48'0 0.1
2015-Jan-19 23:26N 35°37' E 139°48'0 0.0
2015-Jan-19 22:32N 35°37' E 139°48'0 0.0
2015-Jan-19 21:32N 35°37' E 139°48'0 0.0
2015-Jan-19 20:32N 35°37' E 139°48'0 0.0
2015-Jan-19 19:32N 35°37' E 139°48'0 0.0
2015-Jan-19 18:32N 35°37' E 139°48'0 0.0
2015-Jan-19 17:29N 35°37' E 139°48'0 0.0
2015-Jan-19 16:23N 35°37' E 139°48'0 0.0
2015-Jan-19 15:29N 35°37' E 139°48'0 0.0
2015-Jan-19 14:29N 35°37' E 139°48'0 0.0
2015-Jan-19 13:29N 35°37' E 139°48'0 0.0
2015-Jan-19 12:20N 35°37' E 139°48'0 0.0
2015-Jan-19 11:32N 35°37' E 139°48'0 0.0
2015-Jan-19 10:23N 35°37' E 139°48'0 0.0
2015-Jan-19 09:32N 35°37' E 139°48'0 0.0
2015-Jan-19 08:29N 35°37' E 139°48'0 0.0
2015-Jan-19 07:29N 35°37' E 139°48'0 0.0
2015-Jan-19 06:32N 35°37' E 139°48'0 0.0
2015-Jan-19 05:29N 35°37' E 139°48'0 0.0
2015-Jan-19 03:29N 35°37' E 139°48'0 0.0
2015-Jan-19 02:29N 35°37' E 139°48'0 0.0
2015-Jan-19 01:11N 35°37' E 139°48'0 0.0
2015-Jan-19 00:23N 35°37' E 139°48'0 0.0
2015-Jan-18 23:29N 35°37' E 139°48'0 0.0
2015-Jan-18 22:29N 35°37' E 139°48'0 0.0
2015-Jan-18 21:34N 35°37' E 139°48'0 0.1
2015-Jan-18 20:33N 35°37' E 139°48'9 8.7
2015-Jan-18 19:33N 35°29' E 139°52'1312.9
2015-Jan-18 18:33N 35°17' E 139°46'1615.6
2015-Jan-18 17:33N 35°02' E 139°41'2420.8
2015-Jan-18 16:25N 34°48' E 139°18'21918.5
2015-Jan-18 04:34N 33°58' E 134°59'  

Dump ship's entire track history